sensor_id;sensor_type;location;lat;lon;timestamp;pressure;altitude;pressure_sealevel;temperature;humidity
4469;BME280;2247;42.666;23.292;2023-03-14T00:00:07;94585.53;;;9.12;42.10
4469;BME280;2247;42.666;23.292;2023-03-14T00:02:35;94587.59;;;9.04;42.26
4469;BME280;2247;42.666;23.292;2023-03-14T00:05:02;94573.19;;;9.12;42.30
4469;BME280;2247;42.666;23.292;2023-03-14T00:07:32;94561.63;;;9.18;41.83
4469;BME280;2247;42.666;23.292;2023-03-14T00:10:02;94574.25;;;9.16;42.11
4469;BME280;2247;42.666;23.292;2023-03-14T00:12:31;94570.25;;;9.08;42.31
4469;BME280;2247;42.666;23.292;2023-03-14T00:14:58;94559.25;;;9.17;42.01
4469;BME280;2247;42.666;23.292;2023-03-14T00:17:25;94556.13;;;9.25;41.98
4469;BME280;2247;42.666;23.292;2023-03-14T00:19:52;94552.16;;;9.12;42.14
4469;BME280;2247;42.666;23.292;2023-03-14T00:22:20;94545.06;;;9.18;42.14
4469;BME280;2247;42.666;23.292;2023-03-14T00:24:47;94542.69;;;9.21;42.27
4469;BME280;2247;42.666;23.292;2023-03-14T00:27:15;94545.34;;;9.21;42.09
4469;BME280;2247;42.666;23.292;2023-03-14T00:29:42;94533.78;;;9.27;42.02
4469;BME280;2247;42.666;23.292;2023-03-14T00:32:10;94533.53;;;9.24;41.96
4469;BME280;2247;42.666;23.292;2023-03-14T00:34:36;94531.38;;;9.16;42.24
4469;BME280;2247;42.666;23.292;2023-03-14T00:37:03;94526.63;;;9.07;42.35
4469;BME280;2247;42.666;23.292;2023-03-14T00:39:30;94523.50;;;9.11;42.39
4469;BME280;2247;42.666;23.292;2023-03-14T00:41:57;94517.44;;;9.05;42.74
4469;BME280;2247;42.666;23.292;2023-03-14T00:44:26;94521.34;;;9.02;42.82
4469;BME280;2247;42.666;23.292;2023-03-14T00:46:53;94526.13;;;9.05;42.83
4469;BME280;2247;42.666;23.292;2023-03-14T00:49:20;94519.78;;;9.01;42.80
4469;BME280;2247;42.666;23.292;2023-03-14T00:51:47;94531.53;;;8.89;42.68
4469;BME280;2247;42.666;23.292;2023-03-14T00:54:14;94515.78;;;8.89;43.13
4469;BME280;2247;42.666;23.292;2023-03-14T00:56:41;94520.22;;;8.83;43.40
4469;BME280;2247;42.666;23.292;2023-03-14T00:59:07;94517.06;;;8.86;43.36
4469;BME280;2247;42.666;23.292;2023-03-14T01:01:36;94515.22;;;8.77;43.60
4469;BME280;2247;42.666;23.292;2023-03-14T01:04:03;94515.16;;;8.72;43.63
4469;BME280;2247;42.666;23.292;2023-03-14T01:06:30;94462.03;;;8.49;43.26
4469;BME280;2247;42.666;23.292;2023-03-14T01:08:57;94512.25;;;8.63;43.29
4469;BME280;2247;42.666;23.292;2023-03-14T01:11:26;94505.41;;;8.62;43.70
4469;BME280;2247;42.666;23.292;2023-03-14T01:13:53;94498.09;;;8.64;43.58
4469;BME280;2247;42.666;23.292;2023-03-14T01:16:21;94507.28;;;8.66;43.45
4469;BME280;2247;42.666;23.292;2023-03-14T01:18:50;94498.63;;;8.71;43.32
4469;BME280;2247;42.666;23.292;2023-03-14T01:21:19;94492.53;;;8.60;43.41
4469;BME280;2247;42.666;23.292;2023-03-14T01:23:47;94486.50;;;8.60;43.51
4469;BME280;2247;42.666;23.292;2023-03-14T01:26:16;94490.44;;;8.62;43.53
4469;BME280;2247;42.666;23.292;2023-03-14T01:28:44;94490.69;;;8.61;43.39
4469;BME280;2247;42.666;23.292;2023-03-14T01:31:12;94489.91;;;8.65;43.50
4469;BME280;2247;42.666;23.292;2023-03-14T01:33:39;94483.09;;;8.64;43.23
4469;BME280;2247;42.666;23.292;2023-03-14T01:36:09;94481.75;;;8.57;43.48
4469;BME280;2247;42.666;23.292;2023-03-14T01:38:38;94476.75;;;8.55;43.12
4469;BME280;2247;42.666;23.292;2023-03-14T01:41:07;94474.88;;;8.51;43.13
4469;BME280;2247;42.666;23.292;2023-03-14T01:43:34;94470.16;;;8.53;42.84
4469;BME280;2247;42.666;23.292;2023-03-14T01:46:29;94477.81;;;8.59;42.92
4469;BME280;2247;42.666;23.292;2023-03-14T01:49:09;94480.13;;;8.51;43.00
4469;BME280;2247;42.666;23.292;2023-03-14T01:51:44;94471.78;;;8.59;42.85
4469;BME280;2247;42.666;23.292;2023-03-14T01:54:16;94466.81;;;8.57;42.77
4469;BME280;2247;42.666;23.292;2023-03-14T01:56:47;94458.63;;;8.59;42.87
4469;BME280;2247;42.666;23.292;2023-03-14T01:59:17;94463.91;;;8.59;42.84
4469;BME280;2247;42.666;23.292;2023-03-14T02:01:46;94459.72;;;8.63;42.75
4469;BME280;2247;42.666;23.292;2023-03-14T02:04:14;94458.38;;;8.60;42.79
4469;BME280;2247;42.666;23.292;2023-03-14T02:06:52;94458.38;;;8.60;42.74
4469;BME280;2247;42.666;23.292;2023-03-14T02:09:22;94462.53;;;8.51;42.87
4469;BME280;2247;42.666;23.292;2023-03-14T02:11:49;94466.50;;;8.54;42.83
4469;BME280;2247;42.666;23.292;2023-03-14T02:14:28;94451.25;;;8.51;42.96
4469;BME280;2247;42.666;23.292;2023-03-14T02:16:56;94459.41;;;8.49;42.77
4469;BME280;2247;42.666;23.292;2023-03-14T02:19:33;94454.38;;;8.43;42.89
4469;BME280;2247;42.666;23.292;2023-03-14T02:22:08;94451.25;;;8.51;42.99
4469;BME280;2247;42.666;23.292;2023-03-14T02:24:43;94452.56;;;8.48;42.95
4469;BME280;2247;42.666;23.292;2023-03-14T02:27:15;94447.31;;;8.48;42.93
4469;BME280;2247;42.666;23.292;2023-03-14T02:29:49;94445.97;;;8.46;42.48
4469;BME280;2247;42.666;23.292;2023-03-14T02:32:18;94453.31;;;8.44;42.66
4469;BME280;2247;42.666;23.292;2023-03-14T02:34:49;94433.88;;;8.35;42.61
4469;BME280;2247;42.666;23.292;2023-03-14T02:37:19;94459.34;;;8.39;42.86
4469;BME280;2247;42.666;23.292;2023-03-14T02:39:48;94460.69;;;8.47;43.00
4469;BME280;2247;42.666;23.292;2023-03-14T02:42:17;94454.97;;;8.55;42.85
4469;BME280;2247;42.666;23.292;2023-03-14T02:44:50;94457.25;;;8.36;43.19
4469;BME280;2247;42.666;23.292;2023-03-14T02:47:20;94463.09;;;8.11;43.78
4469;BME280;2247;42.666;23.292;2023-03-14T02:49:49;94453.59;;;8.05;44.42
4469;BME280;2247;42.666;23.292;2023-03-14T02:52:16;94463.84;;;8.07;44.45
4469;BME280;2247;42.666;23.292;2023-03-14T02:54:43;94463.84;;;8.07;44.30
4469;BME280;2247;42.666;23.292;2023-03-14T02:57:10;94464.06;;;8.00;44.58
4469;BME280;2247;42.666;23.292;2023-03-14T02:59:38;94468.06;;;8.08;44.43
4469;BME280;2247;42.666;23.292;2023-03-14T03:02:05;94459.09;;;8.04;44.42
4469;BME280;2247;42.666;23.292;2023-03-14T03:04:32;94466.81;;;8.15;44.13
4469;BME280;2247;42.666;23.292;2023-03-14T03:06:58;94467.09;;;8.24;43.96
4469;BME280;2247;42.666;23.292;2023-03-14T03:09:25;94463.69;;;8.23;43.90
4469;BME280;2247;42.666;23.292;2023-03-14T03:11:52;94470.81;;;8.28;43.73
4469;BME280;2247;42.666;23.292;2023-03-14T03:14:19;94481.31;;;8.28;43.82
4469;BME280;2247;42.666;23.292;2023-03-14T03:16:47;94459.53;;;8.27;43.71
4469;BME280;2247;42.666;23.292;2023-03-14T03:19:15;94458.97;;;8.25;43.78
4469;BME280;2247;42.666;23.292;2023-03-14T03:21:43;94435.56;;;8.14;43.80
4469;BME280;2247;42.666;23.292;2023-03-14T03:24:10;94455.31;;;8.26;43.71
4469;BME280;2247;42.666;23.292;2023-03-14T03:26:37;94461.16;;;8.34;43.77
4469;BME280;2247;42.666;23.292;2023-03-14T03:29:04;94459.75;;;8.26;43.66
4469;BME280;2247;42.666;23.292;2023-03-14T03:31:31;94455.56;;;8.30;43.72
4469;BME280;2247;42.666;23.292;2023-03-14T03:33:59;94450.56;;;8.23;43.86
4469;BME280;2247;42.666;23.292;2023-03-14T03:36:26;94450.03;;;8.21;43.90
4469;BME280;2247;42.666;23.292;2023-03-14T03:38:53;94451.88;;;8.21;43.94
4469;BME280;2247;42.666;23.292;2023-03-14T03:41:20;94456.78;;;8.07;44.44
4469;BME280;2247;42.666;23.292;2023-03-14T03:43:47;94455.25;;;8.16;44.00
4469;BME280;2247;42.666;23.292;2023-03-14T03:46:14;94449.94;;;8.06;44.54
4469;BME280;2247;42.666;23.292;2023-03-14T03:48:41;94463.34;;;8.10;44.23
4469;BME280;2247;42.666;23.292;2023-03-14T03:51:13;94469.06;;;8.02;44.62
4469;BME280;2247;42.666;23.292;2023-03-14T03:53:40;94482.88;;;7.87;45.02
4469;BME280;2247;42.666;23.292;2023-03-14T03:56:08;94448.88;;;7.65;45.25
4469;BME280;2247;42.666;23.292;2023-03-14T03:58:35;94467.84;;;7.77;45.29
4469;BME280;2247;42.666;23.292;2023-03-14T04:01:05;94466.34;;;7.86;45.03
4469;BME280;2247;42.666;23.292;2023-03-14T04:03:32;94456.34;;;7.83;44.68
4469;BME280;2247;42.666;23.292;2023-03-14T04:06:00;94467.84;;;7.77;44.94
4469;BME280;2247;42.666;23.292;2023-03-14T04:08:29;94468.63;;;7.78;44.90
4469;BME280;2247;42.666;23.292;2023-03-14T04:10:56;94474.22;;;7.86;44.64
4469;BME280;2247;42.666;23.292;2023-03-14T04:13:24;94455.03;;;7.81;44.56
4469;BME280;2247;42.666;23.292;2023-03-14T04:15:53;94455.31;;;7.89;44.46
4469;BME280;2247;42.666;23.292;2023-03-14T04:18:20;94462.13;;;7.85;44.12
4469;BME280;2247;42.666;23.292;2023-03-14T04:20:51;94460.72;;;7.73;44.60
4469;BME280;2247;42.666;23.292;2023-03-14T04:23:17;94451.13;;;7.51;45.30
4469;BME280;2247;42.666;23.292;2023-03-14T04:25:46;94452.81;;;7.68;45.09
4469;BME280;2247;42.666;23.292;2023-03-14T04:28:12;94446.09;;;7.82;45.04
4469;BME280;2247;42.666;23.292;2023-03-14T04:30:39;94448.72;;;7.82;45.30
4469;BME280;2247;42.666;23.292;2023-03-14T04:33:07;94412.28;;;7.80;45.26
4469;BME280;2247;42.666;23.292;2023-03-14T04:35:33;94418.94;;;7.61;45.60
4469;BME280;2247;42.666;23.292;2023-03-14T04:38:01;94409.78;;;7.64;45.51
4469;BME280;2247;42.666;23.292;2023-03-14T04:40:28;94436.09;;;7.74;45.52
4469;BME280;2247;42.666;23.292;2023-03-14T04:42:56;94422.09;;;7.63;45.55
4469;BME280;2247;42.666;23.292;2023-03-14T04:45:23;94421.69;;;7.81;44.79
4469;BME280;2247;42.666;23.292;2023-03-14T04:47:50;94419.13;;;7.86;44.64
4469;BME280;2247;42.666;23.292;2023-03-14T04:50:17;94414.94;;;7.90;44.69
4469;BME280;2247;42.666;23.292;2023-03-14T04:52:44;94414.97;;;7.96;44.92
4469;BME280;2247;42.666;23.292;2023-03-14T04:55:11;94407.28;;;7.84;45.21
4469;BME280;2247;42.666;23.292;2023-03-14T04:57:38;94411.00;;;7.88;45.18
4469;BME280;2247;42.666;23.292;2023-03-14T05:00:08;94403.13;;;7.88;44.61
4469;BME280;2247;42.666;23.292;2023-03-14T05:15:33;94414.03;;;8.12;45.52
4469;BME280;2247;42.666;23.292;2023-03-14T05:20:35;94414.09;;;8.84;44.89
4469;BME280;2247;42.666;23.292;2023-03-14T05:23:30;94398.63;;;9.13;43.66
4469;BME280;2247;42.666;23.292;2023-03-14T05:25:58;94404.44;;;9.56;42.93
4469;BME280;2247;42.666;23.292;2023-03-14T05:41:23;94393.00;;;11.34;38.53
4469;BME280;2247;42.666;23.292;2023-03-14T05:43:50;94400.59;;;11.46;37.75
4469;BME280;2247;42.666;23.292;2023-03-14T06:01:49;94380.94;;;12.86;36.56
4469;BME280;2247;42.666;23.292;2023-03-14T06:19:52;94393.13;;;13.06;34.24
4469;BME280;2247;42.666;23.292;2023-03-14T06:35:17;94408.88;;;12.74;34.38
4469;BME280;2247;42.666;23.292;2023-03-14T06:40:19;94384.44;;;12.63;34.10
4469;BME280;2247;42.666;23.292;2023-03-14T06:42:47;94392.38;;;13.00;33.55
4469;BME280;2247;42.666;23.292;2023-03-14T06:45:15;94386.75;;;13.07;33.41
4469;BME280;2247;42.666;23.292;2023-03-14T06:47:43;94394.56;;;12.98;32.47
4469;BME280;2247;42.666;23.292;2023-03-14T07:16:05;94364.69;;;12.32;35.12
4469;BME280;2247;42.666;23.292;2023-03-14T07:21:08;94370.31;;;12.01;34.07
4469;BME280;2247;42.666;23.292;2023-03-14T09:50:00;94180.50;;;13.48;31.55
4469;BME280;2247;42.666;23.292;2023-03-14T10:39:24;94069.78;;;14.00;31.21
4469;BME280;2247;42.666;23.292;2023-03-14T11:51:53;93894.41;;;14.99;32.02
4469;BME280;2247;42.666;23.292;2023-03-14T12:07:29;93868.94;;;15.15;31.38
4469;BME280;2247;42.666;23.292;2023-03-14T14:06:36;93629.06;;;17.00;26.94
4469;BME280;2247;42.666;23.292;2023-03-14T16:44:23;93525.25;;;15.01;27.88
4469;BME280;2247;42.666;23.292;2023-03-14T18:45:05;93543.72;;;12.99;27.12
4469;BME280;2247;42.666;23.292;2023-03-14T18:47:34;93536.66;;;12.94;27.17
4469;BME280;2247;42.666;23.292;2023-03-14T18:55:20;93521.06;;;13.24;27.02
4469;BME280;2247;42.666;23.292;2023-03-14T18:57:48;93536.47;;;13.22;26.56
4469;BME280;2247;42.666;23.292;2023-03-14T19:02:50;93524.00;;;12.74;26.85
4469;BME280;2247;42.666;23.292;2023-03-14T19:05:20;93526.84;;;12.86;26.71
4469;BME280;2247;42.666;23.292;2023-03-14T19:12:55;93523.09;;;12.79;26.34
4469;BME280;2247;42.666;23.292;2023-03-14T19:15:22;93525.75;;;12.79;26.62
4469;BME280;2247;42.666;23.292;2023-03-14T19:18:02;93541.50;;;12.92;26.21
4469;BME280;2247;42.666;23.292;2023-03-14T19:20:33;93529.59;;;12.73;26.46
4469;BME280;2247;42.666;23.292;2023-03-14T19:23:00;93535.63;;;12.65;26.94
4469;BME280;2247;42.666;23.292;2023-03-14T19:25:27;93534.41;;;12.71;26.81
4469;BME280;2247;42.666;23.292;2023-03-14T19:27:55;93528.78;;;12.63;27.13
4469;BME280;2247;42.666;23.292;2023-03-14T19:30:23;93539.94;;;12.60;27.26
4469;BME280;2247;42.666;23.292;2023-03-14T19:38:03;93545.03;;;12.48;28.31
4469;BME280;2247;42.666;23.292;2023-03-14T19:40:30;93500.09;;;12.17;28.13
4469;BME280;2247;42.666;23.292;2023-03-14T19:42:57;93523.59;;;12.50;28.13
4469;BME280;2247;42.666;23.292;2023-03-14T19:50:36;93516.06;;;12.74;27.98
4469;BME280;2247;42.666;23.292;2023-03-14T19:53:08;93538.41;;;12.99;28.45
4469;BME280;2247;42.666;23.292;2023-03-14T19:58:11;93513.44;;;12.43;29.10
4469;BME280;2247;42.666;23.292;2023-03-14T20:00:39;93537.75;;;12.54;29.67
4469;BME280;2247;42.666;23.292;2023-03-14T20:03:06;93509.91;;;12.48;29.57
4469;BME280;2247;42.666;23.292;2023-03-14T20:05:43;93550.31;;;12.48;29.95
4469;BME280;2247;42.666;23.292;2023-03-14T20:08:11;93520.59;;;12.43;30.38
4469;BME280;2247;42.666;23.292;2023-03-14T20:13:18;93543.31;;;12.44;30.77
4469;BME280;2247;42.666;23.292;2023-03-14T20:15:54;93536.19;;;12.53;30.66
4469;BME280;2247;42.666;23.292;2023-03-14T20:20:57;93513.97;;;12.54;30.98
4469;BME280;2247;42.666;23.292;2023-03-14T20:23:27;93507.94;;;12.62;31.30
4469;BME280;2247;42.666;23.292;2023-03-14T20:25:56;93484.69;;;12.42;31.41
4469;BME280;2247;42.666;23.292;2023-03-14T20:28:25;93503.25;;;12.59;31.36
4469;BME280;2247;42.666;23.292;2023-03-14T20:30:52;93488.47;;;12.49;31.88
4469;BME280;2247;42.666;23.292;2023-03-14T20:33:19;93508.97;;;12.52;32.18
4469;BME280;2247;42.666;23.292;2023-03-14T20:35:52;93506.63;;;12.20;32.77
4469;BME280;2247;42.666;23.292;2023-03-14T20:38:30;93511.16;;;11.97;33.11
4469;BME280;2247;42.666;23.292;2023-03-14T20:40:59;93511.97;;;11.84;33.53
4469;BME280;2247;42.666;23.292;2023-03-14T20:48:36;93501.56;;;11.29;34.73
4469;BME280;2247;42.666;23.292;2023-03-14T20:51:04;93501.19;;;11.22;35.24
4469;BME280;2247;42.666;23.292;2023-03-14T20:53:32;93505.59;;;11.27;35.69
4469;BME280;2247;42.666;23.292;2023-03-14T20:56:15;93494.03;;;11.36;35.10
4469;BME280;2247;42.666;23.292;2023-03-14T20:58:52;93481.47;;;11.56;35.16
4469;BME280;2247;42.666;23.292;2023-03-14T21:03:51;93492.47;;;11.71;36.41
4469;BME280;2247;42.666;23.292;2023-03-14T21:06:38;93488.56;;;11.69;36.25
4469;BME280;2247;42.666;23.292;2023-03-14T21:11:48;93487.94;;;11.86;36.37
4469;BME280;2247;42.666;23.292;2023-03-14T21:14:16;93487.41;;;11.75;36.70
4469;BME280;2247;42.666;23.292;2023-03-14T21:16:44;93492.31;;;11.90;36.25
4469;BME280;2247;42.666;23.292;2023-03-14T21:21:47;93486.00;;;11.77;36.43
4469;BME280;2247;42.666;23.292;2023-03-14T21:24:14;93482.69;;;11.72;36.58
4469;BME280;2247;42.666;23.292;2023-03-14T21:26:45;93491.13;;;11.96;36.10
4469;BME280;2247;42.666;23.292;2023-03-14T21:29:17;93482.66;;;12.08;35.85
4469;BME280;2247;42.666;23.292;2023-03-14T21:31:52;93458.09;;;12.07;35.16
4469;BME280;2247;42.666;23.292;2023-03-14T21:42:43;93485.84;;;12.58;34.89
4469;BME280;2247;42.666;23.292;2023-03-14T21:45:12;93488.94;;;12.51;34.87
4469;BME280;2247;42.666;23.292;2023-03-14T21:47:41;93483.25;;;12.36;35.08
4469;BME280;2247;42.666;23.292;2023-03-14T21:50:11;93485.06;;;12.27;35.04
4469;BME280;2247;42.666;23.292;2023-03-14T21:52:40;93470.34;;;12.03;36.54
4469;BME280;2247;42.666;23.292;2023-03-14T21:55:11;93470.44;;;12.20;36.28
4469;BME280;2247;42.666;23.292;2023-03-14T21:57:42;93483.16;;;12.18;35.98
4469;BME280;2247;42.666;23.292;2023-03-14T22:00:12;93487.28;;;12.33;35.33
4469;BME280;2247;42.666;23.292;2023-03-14T22:02:41;93467.06;;;12.29;34.98
4469;BME280;2247;42.666;23.292;2023-03-14T22:05:09;93460.56;;;12.35;34.97
4469;BME280;2247;42.666;23.292;2023-03-14T22:07:37;93463.78;;;12.23;34.86
4469;BME280;2247;42.666;23.292;2023-03-14T22:10:05;93454.91;;;11.97;35.19
4469;BME280;2247;42.666;23.292;2023-03-14T22:12:33;93449.91;;;11.87;35.41
4469;BME280;2247;42.666;23.292;2023-03-14T22:15:00;93456.06;;;12.04;35.32
4469;BME280;2247;42.666;23.292;2023-03-14T22:17:29;93464.00;;;11.82;35.59
4469;BME280;2247;42.666;23.292;2023-03-14T22:19:56;93457.78;;;11.64;35.59
4469;BME280;2247;42.666;23.292;2023-03-14T22:22:23;93450.41;;;11.53;35.19
4469;BME280;2247;42.666;23.292;2023-03-14T22:24:50;93441.97;;;11.64;34.91
4469;BME280;2247;42.666;23.292;2023-03-14T22:27:18;93426.31;;;11.45;35.37
4469;BME280;2247;42.666;23.292;2023-03-14T22:29:45;93426.97;;;11.51;35.35
4469;BME280;2247;42.666;23.292;2023-03-14T22:32:14;93427.97;;;11.64;35.04
4469;BME280;2247;42.666;23.292;2023-03-14T22:34:43;93419.13;;;11.60;34.94
4469;BME280;2247;42.666;23.292;2023-03-14T22:37:11;93422.97;;;11.76;34.96
4469;BME280;2247;42.666;23.292;2023-03-14T22:39:38;93423.06;;;11.93;34.89
4469;BME280;2247;42.666;23.292;2023-03-14T22:42:06;93422.00;;;11.94;35.09
4469;BME280;2247;42.666;23.292;2023-03-14T22:44:33;93425.22;;;11.69;36.35
4469;BME280;2247;42.666;23.292;2023-03-14T22:47:00;93407.78;;;11.59;36.28
4469;BME280;2247;42.666;23.292;2023-03-14T22:49:29;93420.38;;;11.62;36.71
4469;BME280;2247;42.666;23.292;2023-03-14T22:51:58;93424.53;;;11.55;36.65
4469;BME280;2247;42.666;23.292;2023-03-14T22:54:25;93418.28;;;11.73;36.72
4469;BME280;2247;42.666;23.292;2023-03-14T22:56:52;93420.31;;;11.76;36.65
4469;BME280;2247;42.666;23.292;2023-03-14T22:59:19;93405.50;;;11.89;36.55
4469;BME280;2247;42.666;23.292;2023-03-14T23:01:46;93402.31;;;12.00;36.26
4469;BME280;2247;42.666;23.292;2023-03-14T23:04:13;93411.78;;;12.01;36.27
4469;BME280;2247;42.666;23.292;2023-03-14T23:06:40;93412.25;;;12.03;36.53
4469;BME280;2247;42.666;23.292;2023-03-14T23:09:08;93418.31;;;12.04;36.61
4469;BME280;2247;42.666;23.292;2023-03-14T23:11:36;93409.59;;;12.03;36.86
4469;BME280;2247;42.666;23.292;2023-03-14T23:14:04;93385.97;;;11.98;36.98
4469;BME280;2247;42.666;23.292;2023-03-14T23:16:31;93400.66;;;12.13;36.89
4469;BME280;2247;42.666;23.292;2023-03-14T23:18:58;93403.69;;;11.98;36.97
4469;BME280;2247;42.666;23.292;2023-03-14T23:21:25;93398.72;;;11.96;36.95
4469;BME280;2247;42.666;23.292;2023-03-14T23:23:52;93398.72;;;11.96;37.09
4469;BME280;2247;42.666;23.292;2023-03-14T23:26:22;93394.53;;;11.95;37.43
4469;BME280;2247;42.666;23.292;2023-03-14T23:28:52;93402.13;;;11.97;37.15
4469;BME280;2247;42.666;23.292;2023-03-14T23:31:20;93381.09;;;11.83;37.31
4469;BME280;2247;42.666;23.292;2023-03-14T23:33:47;93414.88;;;11.95;37.07
4469;BME280;2247;42.666;23.292;2023-03-14T23:36:15;93411.44;;;11.94;37.59
4469;BME280;2247;42.666;23.292;2023-03-14T23:38:44;93409.75;;;11.98;37.44
4469;BME280;2247;42.666;23.292;2023-03-14T23:41:12;93400.09;;;11.71;37.73
4469;BME280;2247;42.666;23.292;2023-03-14T23:43:41;93414.59;;;11.74;37.98
4469;BME280;2247;42.666;23.292;2023-03-14T23:46:08;93407.38;;;11.66;38.46
4469;BME280;2247;42.666;23.292;2023-03-14T23:48:36;93381.22;;;11.56;38.42
4469;BME280;2247;42.666;23.292;2023-03-14T23:51:05;93404.84;;;11.83;38.19
4469;BME280;2247;42.666;23.292;2023-03-14T23:53:32;93404.38;;;11.81;38.05
4469;BME280;2247;42.666;23.292;2023-03-14T23:56:00;93402.03;;;11.79;38.08
4469;BME280;2247;42.666;23.292;2023-03-14T23:58:28;93406.41;;;11.84;38.20
